Time;durP1;ratioP1;P1;durP2;ratioP2;P2;SDS_P1;SDS_P2;PMS_P1;PMS_P2;Temp;Humidity;BMP_temperature;BMP_pressure;BME280_temperature;BME280_humidity;BME280_pressure;Samples;Min_cycle;Max_cycle;Signal;HPM_P1;HPM_P2
2022/08/30 00:02:11;;;;;;;6.03;4.10;;;15.70;99.90;;;;;;4852544;29;20072;-66
2022/08/30 00:04:37;;;;;;;4.53;3.58;;;15.70;99.90;;;;;;4861010;29;20486;-66
2022/08/30 00:07:03;;;;;;;4.38;3.55;;;15.70;99.90;;;;;;4861207;29;20526;-66
2022/08/30 00:09:30;;;;;;;4.95;3.90;;;15.70;99.90;;;;;;4860899;29;20053;-66
2022/08/30 00:11:56;;;;;;;4.97;3.47;;;15.70;99.90;;;;;;4861809;29;20145;-66
2022/08/30 00:14:21;;;;;;;5.53;4.00;;;15.80;99.90;;;;;;4862076;29;20076;-67
2022/08/30 00:16:47;;;;;;;4.55;3.60;;;15.70;99.90;;;;;;4848006;29;20058;-67
2022/08/30 00:19:13;;;;;;;6.22;3.90;;;15.70;99.90;;;;;;4840621;29;20471;-66
2022/08/30 00:21:39;;;;;;;5.30;3.67;;;15.70;99.90;;;;;;4845222;29;20069;-66
2022/08/30 00:24:05;;;;;;;5.78;3.83;;;15.70;99.90;;;;;;4861647;29;20058;-66
2022/08/30 00:26:30;;;;;;;6.85;3.72;;;15.70;99.90;;;;;;4861705;29;20411;-66
2022/08/30 00:28:57;;;;;;;6.20;3.95;;;15.70;99.90;;;;;;4844877;29;20069;-67
2022/08/30 00:31:23;;;;;;;4.93;3.78;;;15.70;99.90;;;;;;4859280;29;20068;-66
2022/08/30 00:33:48;;;;;;;6.85;4.47;;;15.70;99.90;;;;;;4858472;29;20057;-67
2022/08/30 00:36:14;;;;;;;4.32;3.92;;;15.80;99.90;;;;;;4848746;29;20058;-66
2022/08/30 00:38:40;;;;;;;4.25;3.80;;;15.70;99.90;;;;;;4843616;29;20125;-66
2022/08/30 00:41:06;;;;;;;4.30;3.90;;;15.70;99.90;;;;;;4851523;29;20149;-67
2022/08/30 00:43:34;;;;;;;5.75;3.80;;;15.80;99.90;;;;;;4857173;29;20053;-66
2022/08/30 00:46:03;;;;;;;5.47;3.53;;;15.70;99.90;;;;;;4828635;29;20136;-67
2022/08/30 00:48:30;;;;;;;3.83;3.42;;;15.70;99.90;;;;;;4859935;29;20053;-66
2022/08/30 00:51:00;;;;;;;6.75;3.97;;;15.70;99.90;;;;;;4860849;29;20514;-67
2022/08/30 00:53:30;;;;;;;3.75;3.35;;;15.70;99.90;;;;;;4860055;29;20467;-67
2022/08/30 00:55:57;;;;;;;5.05;4.07;;;15.70;99.90;;;;;;4859400;29;20058;-67
2022/08/30 00:58:28;;;;;;;4.75;3.78;;;15.70;99.90;;;;;;4856841;29;20057;-67
2022/08/30 01:00:57;;;;;;;5.80;3.85;;;15.70;99.90;;;;;;4858058;29;20057;-67
2022/08/30 01:03:23;;;;;;;5.15;4.07;;;15.60;99.90;;;;;;4861160;29;20100;-67
2022/08/30 01:05:50;;;;;;;4.05;3.70;;;15.60;99.90;;;;;;4860046;29;20069;-67
2022/08/30 01:08:17;;;;;;;4.57;4.07;;;15.60;99.90;;;;;;4859467;29;20111;-67
2022/08/30 01:10:43;;;;;;;5.05;3.85;;;15.60;99.90;;;;;;4859090;29;20120;-67
2022/08/30 01:13:12;;;;;;;4.38;3.97;;;15.60;99.90;;;;;;4859699;29;20461;-67
2022/08/30 01:15:39;;;;;;;6.28;3.90;;;15.70;99.90;;;;;;4857814;29;20054;-67
2022/08/30 01:18:05;;;;;;;6.13;4.13;;;15.60;99.90;;;;;;4853130;29;20121;-67
2022/08/30 01:20:45;;;;;;;4.53;4.13;;;15.50;99.90;;;;;;4859791;29;20479;-67
2022/08/30 01:23:15;;;;;;;5.50;4.22;;;15.50;99.90;;;;;;4845407;29;20473;-67
2022/08/30 01:25:43;;;;;;;5.65;4.50;;;15.50;99.90;;;;;;4860301;29;20076;-67
2022/08/30 01:28:14;;;;;;;5.30;3.95;;;15.50;99.90;;;;;;4859489;29;20054;-67
2022/08/30 01:30:41;;;;;;;8.55;4.07;;;15.50;99.90;;;;;;4860281;29;20120;-67
2022/08/30 01:33:09;;;;;;;6.82;4.15;;;15.50;99.90;;;;;;4860122;29;20049;-67
2022/08/30 01:35:48;;;;;;;5.18;4.57;;;15.40;99.90;;;;;;4859278;29;20057;-67
2022/08/30 01:38:16;;;;;;;5.32;4.68;;;15.50;99.90;;;;;;4842346;29;20057;-66
2022/08/30 01:40:42;;;;;;;5.50;4.82;;;15.40;99.90;;;;;;4844300;29;20514;-67
2022/08/30 01:43:10;;;;;;;7.72;4.45;;;15.40;99.90;;;;;;4840452;29;20493;-67
2022/08/30 01:45:36;;;;;;;5.13;4.10;;;15.40;99.90;;;;;;4859940;29;20060;-67
2022/08/30 01:48:02;;;;;;;6.78;4.35;;;15.30;99.90;;;;;;4860619;29;20053;-67
2022/08/30 01:50:27;;;;;;;4.70;4.20;;;15.30;99.90;;;;;;4859159;29;20495;-67
2022/08/30 01:52:53;;;;;;;4.63;4.22;;;15.30;99.90;;;;;;4859634;29;20065;-66
2022/08/30 01:55:18;;;;;;;5.88;5.00;;;15.30;99.90;;;;;;4843379;29;20056;-67
2022/08/30 01:57:45;;;;;;;5.45;4.90;;;15.30;99.90;;;;;;4857535;29;20407;-67
2022/08/30 02:00:12;;;;;;;5.70;4.38;;;15.30;99.90;;;;;;4843687;29;20064;-67
2022/08/30 02:02:38;;;;;;;4.97;4.47;;;15.20;99.90;;;;;;4855252;29;20057;-67
2022/08/30 02:05:05;;;;;;;5.95;4.53;;;15.30;99.90;;;;;;4858949;29;20057;-67
2022/08/30 02:07:31;;;;;;;6.63;4.47;;;15.20;99.90;;;;;;4841635;29;20157;-68
2022/08/30 02:09:56;;;;;;;5.35;4.72;;;15.20;99.90;;;;;;4860332;29;20057;-67
2022/08/30 02:12:22;;;;;;;6.00;4.60;;;15.20;99.90;;;;;;4844222;29;20511;-67
2022/08/30 02:14:48;;;;;;;5.65;4.85;;;15.20;99.90;;;;;;4859580;29;20054;-67
2022/08/30 02:17:14;;;;;;;7.28;4.90;;;15.20;99.90;;;;;;4851251;29;20058;-68
2022/08/30 02:19:41;;;;;;;4.45;4.05;;;15.10;99.90;;;;;;4844068;29;20111;-68
2022/08/30 02:22:07;;;;;;;5.47;4.40;;;15.10;99.90;;;;;;4842126;29;20053;-68
2022/08/30 02:24:33;;;;;;;4.82;4.32;;;15.10;99.90;;;;;;4842602;29;20064;-68
2022/08/30 02:26:59;;;;;;;5.55;4.57;;;15.10;99.90;;;;;;4858863;29;20057;-68
2022/08/30 02:29:25;;;;;;;7.88;4.22;;;15.10;99.90;;;;;;4856492;29;20527;-68
2022/08/30 02:31:51;;;;;;;6.05;5.13;;;15.00;99.90;;;;;;4833025;29;20062;-68
2022/08/30 02:34:18;;;;;;;6.80;5.22;;;14.90;99.90;;;;;;4845376;29;20069;-68
2022/08/30 02:36:43;;;;;;;5.22;4.72;;;15.00;99.90;;;;;;4859645;29;20057;-68
2022/08/30 02:39:11;;;;;;;7.50;5.07;;;14.90;99.90;;;;;;4845691;29;20058;-68
2022/08/30 02:41:37;;;;;;;7.43;4.85;;;14.90;99.90;;;;;;4838919;29;20050;-68
2022/08/30 02:44:04;;;;;;;6.15;5.30;;;14.90;99.90;;;;;;4861974;29;20092;-68
2022/08/30 02:46:30;;;;;;;5.88;5.00;;;14.80;99.90;;;;;;4863653;29;20104;-68
2022/08/30 02:48:56;;;;;;;6.13;4.85;;;14.80;99.90;;;;;;4846514;29;20400;-68
2022/08/30 02:51:22;;;;;;;7.18;5.15;;;14.80;99.90;;;;;;4839224;29;20203;-68
2022/08/30 02:53:48;;;;;;;5.55;4.78;;;14.80;99.90;;;;;;4844781;29;20411;-68
2022/08/30 02:56:14;;;;;;;8.02;5.47;;;14.70;99.90;;;;;;4851913;29;20499;-68
2022/08/30 02:58:41;;;;;;;5.03;4.53;;;14.70;99.90;;;;;;4862985;29;20549;-68
2022/08/30 03:01:08;;;;;;;7.50;5.03;;;14.70;99.90;;;;;;4856245;29;20046;-66
2022/08/30 03:03:35;;;;;;;5.72;5.13;;;14.60;99.90;;;;;;4861996;29;20064;-67
2022/08/30 03:06:02;;;;;;;5.90;5.35;;;14.60;99.90;;;;;;4861035;29;20065;-68
2022/08/30 03:08:28;;;;;;;5.68;5.10;;;14.60;99.90;;;;;;4832701;29;20088;-68
2022/08/30 03:10:56;;;;;;;5.95;5.35;;;14.50;99.90;;;;;;4857923;29;20058;-68
2022/08/30 03:13:22;;;;;;;7.80;5.10;;;14.50;99.90;;;;;;4853078;29;20057;-68
2022/08/30 03:15:49;;;;;;;5.85;5.15;;;14.40;99.90;;;;;;4839093;29;20058;-68
2022/08/30 03:18:15;;;;;;;6.07;4.78;;;14.30;99.90;;;;;;4845322;29;20042;-68
2022/08/30 03:20:41;;;;;;;5.45;4.82;;;14.40;99.90;;;;;;4862524;29;20076;-68
2022/08/30 03:23:07;;;;;;;6.13;5.03;;;14.30;99.90;;;;;;4860365;29;20399;-68
2022/08/30 03:25:33;;;;;;;7.32;5.45;;;14.30;99.90;;;;;;4862397;29;20053;-68
2022/08/30 03:27:58;;;;;;;6.90;5.15;;;14.20;99.90;;;;;;4861198;29;20499;-68
2022/08/30 03:30:24;;;;;;;6.00;5.00;;;14.20;99.90;;;;;;4859149;29;20056;-68
2022/08/30 03:32:50;;;;;;;6.22;5.05;;;14.20;99.90;;;;;;4825906;29;20415;-68
2022/08/30 03:35:17;;;;;;;5.57;5.07;;;14.10;99.90;;;;;;4862090;29;20045;-68
2022/08/30 03:37:43;;;;;;;6.55;5.20;;;14.00;99.90;;;;;;4861593;29;20123;-68
2022/08/30 03:40:11;;;;;;;8.13;5.15;;;14.00;99.90;;;;;;4862185;29;20046;-68
2022/08/30 03:42:37;;;;;;;7.30;5.57;;;14.00;99.90;;;;;;4860859;29;20475;-68
2022/08/30 03:45:04;;;;;;;7.50;5.70;;;14.00;99.90;;;;;;4860308;29;20499;-68
2022/08/30 03:47:56;;;;;;;6.65;6.00;;;13.90;99.90;;;;;;4861397;29;20415;-68
2022/08/30 03:50:22;;;;;;;6.90;5.88;;;13.90;99.90;;;;;;4862324;29;20462;-68
2022/08/30 03:52:47;;;;;;;6.43;5.82;;;13.90;99.90;;;;;;4842981;29;20057;-68
2022/08/30 03:55:13;;;;;;;7.55;6.22;;;13.80;99.90;;;;;;4839796;29;20050;-68
2022/08/30 03:57:41;;;;;;;6.95;6.07;;;13.80;99.90;;;;;;4847242;29;20124;-68
2022/08/30 04:00:07;;;;;;;7.93;6.32;;;13.80;99.90;;;;;;4844602;29;20053;-68
2022/08/30 04:02:33;;;;;;;6.90;6.20;;;13.70;99.90;;;;;;4836860;29;20514;-68
2022/08/30 04:04:59;;;;;;;9.73;6.20;;;13.70;99.90;;;;;;4849126;29;20050;-68
2022/08/30 04:07:24;;;;;;;7.43;6.72;;;13.70;99.90;;;;;;4861720;29;20049;-68
2022/08/30 04:09:50;;;;;;;9.13;6.75;;;13.70;99.90;;;;;;4862523;29;20609;-68
2022/08/30 04:12:15;;;;;;;7.95;6.40;;;13.60;99.90;;;;;;4845479;29;20064;-68
2022/08/30 04:14:41;;;;;;;9.05;6.47;;;13.60;99.90;;;;;;4861779;29;20132;-68
2022/08/30 04:17:06;;;;;;;8.10;7.40;;;13.60;99.90;;;;;;4828971;29;20117;-68
2022/08/30 04:19:32;;;;;;;6.78;6.13;;;13.60;99.90;;;;;;4844833;29;20057;-68
2022/08/30 04:21:58;;;;;;;7.30;6.43;;;13.50;99.90;;;;;;4861149;29;20059;-69
2022/08/30 04:24:24;;;;;;;8.13;6.68;;;13.50;99.90;;;;;;4845657;29;20064;-68
2022/08/30 04:26:49;;;;;;;10.32;7.10;;;13.50;99.90;;;;;;4845465;29;20053;-68
2022/08/30 04:29:16;;;;;;;8.05;7.10;;;13.60;99.90;;;;;;4844514;29;20555;-68
2022/08/30 04:31:42;;;;;;;7.43;6.50;;;13.40;99.90;;;;;;4860772;29;20053;-68
2022/08/30 04:34:12;;;;;;;9.85;7.15;;;13.40;99.90;;;;;;4839422;29;20094;-68
2022/08/30 04:36:38;;;;;;;9.48;6.85;;;13.40;99.90;;;;;;4827734;29;20110;-68
2022/08/30 04:39:04;;;;;;;6.47;5.93;;;13.40;99.90;;;;;;4843038;29;20494;-68
2022/08/30 04:41:30;;;;;;;8.02;6.63;;;13.30;99.90;;;;;;4857109;29;20061;-68
2022/08/30 04:43:56;;;;;;;9.25;7.35;;;13.30;99.90;;;;;;4860387;29;20411;-68
2022/08/30 04:46:21;;;;;;;7.95;7.22;;;13.30;99.90;;;;;;4860774;29;20140;-68
2022/08/30 04:48:47;;;;;;;9.07;7.13;;;13.30;99.90;;;;;;4853330;29;20506;-68
2022/08/30 04:51:15;;;;;;;7.43;6.80;;;13.30;99.90;;;;;;4858313;29;20057;-68
2022/08/30 04:53:42;;;;;;;8.48;7.55;;;13.20;99.90;;;;;;4858425;29;20061;-68
2022/08/30 04:56:21;;;;;;;8.98;7.50;;;13.20;99.90;;;;;;4860401;29;20049;-67
2022/08/30 04:58:48;;;;;;;8.50;7.65;;;13.20;99.90;;;;;;4857661;29;20064;-68
2022/08/30 05:01:21;;;;;;;9.32;8.30;;;13.20;99.90;;;;;;4857653;29;20509;-68
2022/08/30 05:03:47;;;;;;;11.00;7.57;;;13.20;99.90;;;;;;4855015;29;20057;-68
2022/08/30 05:06:13;;;;;;;10.27;8.63;;;13.20;99.90;;;;;;4850970;29;20132;-69
2022/08/30 05:08:39;;;;;;;9.90;8.35;;;13.20;99.90;;;;;;4841580;29;20152;-68
2022/08/30 05:11:06;;;;;;;10.55;8.88;;;13.10;99.90;;;;;;4846544;29;20061;-68
2022/08/30 05:13:33;;;;;;;8.98;8.07;;;13.10;99.90;;;;;;4860307;29;20057;-68
2022/08/30 05:15:59;;;;;;;9.90;8.80;;;13.10;99.90;;;;;;4841953;29;20105;-68
2022/08/30 05:18:25;;;;;;;10.25;8.55;;;13.20;99.90;;;;;;4840494;29;20057;-68
2022/08/30 05:21:03;;;;;;;9.73;8.82;;;13.10;99.90;;;;;;4858147;29;20144;-68
2022/08/30 05:23:29;;;;;;;8.95;8.05;;;13.10;99.90;;;;;;4858391;29;20129;-68
2022/08/30 05:25:54;;;;;;;9.45;8.45;;;13.10;99.90;;;;;;4855174;29;20495;-68
2022/08/30 05:28:20;;;;;;;9.35;8.38;;;13.20;99.90;;;;;;4850610;29;20057;-68
2022/08/30 05:30:46;;;;;;;9.18;8.20;;;13.20;99.90;;;;;;4860646;29;20065;-68
2022/08/30 05:33:11;;;;;;;9.35;7.95;;;13.20;99.90;;;;;;4860831;29;20045;-68
2022/08/30 05:35:37;;;;;;;10.07;8.55;;;13.20;99.90;;;;;;4860766;29;20136;-69
2022/08/30 05:38:03;;;;;;;8.60;7.78;;;13.20;99.90;;;;;;4843819;29;20060;-68
2022/08/30 05:40:28;;;;;;;9.65;7.90;;;13.20;99.90;;;;;;4853895;29;20351;-68
2022/08/30 05:42:54;;;;;;;8.70;7.90;;;13.20;99.90;;;;;;4844042;29;20093;-68
2022/08/30 05:45:20;;;;;;;7.97;7.15;;;13.30;99.90;;;;;;4843445;29;20045;-68
2022/08/30 05:47:46;;;;;;;8.90;7.68;;;13.30;99.90;;;;;;4860121;29;20112;-68
2022/08/30 05:50:12;;;;;;;9.05;7.20;;;13.30;99.90;;;;;;4843433;29;20069;-68
2022/08/30 05:52:39;;;;;;;8.90;8.00;;;13.50;99.90;;;;;;4858838;29;20058;-68
2022/08/30 05:55:06;;;;;;;8.48;7.43;;;13.50;99.90;;;;;;4858783;29;20053;-68
2022/08/30 05:57:36;;;;;;;8.57;7.63;;;13.50;99.90;;;;;;4857486;29;20058;-68
2022/08/30 06:00:06;;;;;;;8.95;7.75;;;13.60;99.90;;;;;;4844049;29;20527;-68
2022/08/30 06:02:32;;;;;;;7.63;6.75;;;13.60;99.90;;;;;;4860070;29;20057;-68
2022/08/30 06:04:57;;;;;;;11.75;7.80;;;13.80;99.90;;;;;;4826815;29;20127;-68
2022/08/30 06:07:23;;;;;;;7.93;7.00;;;13.80;99.90;;;;;;4843326;29;20487;-69
2022/08/30 06:09:48;;;;;;;7.35;6.65;;;13.90;99.90;;;;;;4855297;29;20050;-68
2022/08/30 06:12:14;;;;;;;9.32;7.00;;;14.20;99.90;;;;;;4855181;29;20106;-69
2022/08/30 06:14:40;;;;;;;7.03;6.32;;;14.10;99.90;;;;;;4859082;29;20129;-67
2022/08/30 06:17:05;;;;;;;6.88;6.20;;;14.20;99.90;;;;;;4847181;29;20087;-67
2022/08/30 06:19:31;;;;;;;10.35;6.68;;;14.30;99.90;;;;;;4863960;29;20156;-67
2022/08/30 06:21:57;;;;;;;7.55;6.63;;;14.40;99.90;;;;;;4847071;29;20081;-67
2022/08/30 06:24:22;;;;;;;7.40;6.68;;;14.50;99.90;;;;;;4834110;29;20081;-68
2022/08/30 06:26:48;;;;;;;7.03;6.20;;;14.50;99.90;;;;;;4828956;29;20050;-68
2022/08/30 06:29:17;;;;;;;7.40;5.90;;;14.60;99.90;;;;;;4845575;29;20107;-67
2022/08/30 06:31:43;;;;;;;8.50;5.85;;;14.70;99.90;;;;;;4845051;29;20499;-68
2022/08/30 06:34:09;;;;;;;6.88;5.70;;;14.80;99.90;;;;;;4845777;29;20046;-67
2022/08/30 06:36:37;;;;;;;6.40;5.30;;;14.90;99.90;;;;;;4828500;29;20058;-70
2022/08/30 06:39:12;;;;;;;6.18;5.13;;;15.00;99.90;;;;;;4818871;29;20061;-68
2022/08/30 06:41:39;;;;;;;7.85;5.25;;;15.10;99.90;;;;;;4828501;29;20056;-68
2022/08/30 06:44:06;;;;;;;6.22;5.40;;;15.20;99.90;;;;;;4834686;29;20129;-68
2022/08/30 06:46:35;;;;;;;9.00;4.75;;;15.30;99.90;;;;;;4861920;29;20093;-68
2022/08/30 06:49:02;;;;;;;7.85;4.82;;;15.40;99.90;;;;;;4862161;29;20050;-69
2022/08/30 06:51:31;;;;;;;6.57;4.32;;;15.50;99.90;;;;;;4861619;29;20061;-68
2022/08/30 06:53:58;;;;;;;6.57;4.03;;;15.60;99.90;;;;;;4861685;29;20057;-68
2022/08/30 06:56:24;;;;;;;4.18;3.78;;;15.70;99.90;;;;;;4861160;29;20467;-69
2022/08/30 06:58:50;;;;;;;4.47;3.20;;;15.80;99.90;;;;;;4847028;29;20133;-67
2022/08/30 07:01:23;;;;;;;5.97;3.30;;;15.90;99.90;;;;;;4862199;29;20049;-67
2022/08/30 07:03:49;;;;;;;3.13;2.83;;;15.80;99.90;;;;;;4861832;29;20133;-67
2022/08/30 07:06:15;;;;;;;3.30;2.72;;;16.10;99.90;;;;;;4845838;29;20063;-68
2022/08/30 07:08:41;;;;;;;2.95;2.60;;;16.20;99.90;;;;;;4843526;29;20042;-67
2022/08/30 07:11:07;;;;;;;4.15;2.40;;;16.30;99.90;;;;;;4846588;29;20380;-67
2022/08/30 07:13:34;;;;;;;2.85;1.60;;;16.40;99.90;;;;;;4863138;29;20068;-68
2022/08/30 07:16:00;;;;;;;2.13;1.92;;;16.50;99.90;;;;;;4846155;29;20132;-67
2022/08/30 07:21:14;;;;;;;3.10;1.98;;;16.70;99.90;;;;;;4862192;29;20053;-68
2022/08/30 07:23:41;;;;;;;2.25;1.75;;;16.90;99.90;;;;;;4845423;29;20054;-68
2022/08/30 07:26:09;;;;;;;2.92;1.90;;;17.00;99.90;;;;;;4861223;29;20057;-68
2022/08/30 07:28:40;;;;;;;4.25;1.80;;;17.10;99.90;;;;;;4833478;29;20054;-68
2022/08/30 07:31:06;;;;;;;4.65;1.85;;;17.10;99.90;;;;;;4859301;29;20066;-68
2022/08/30 07:33:32;;;;;;;1.60;1.45;;;17.20;99.90;;;;;;4862708;29;20058;-68
2022/08/30 07:35:58;;;;;;;3.08;1.60;;;17.30;99.90;;;;;;4861119;29;20053;-68
2022/08/30 07:38:25;;;;;;;2.42;1.77;;;17.50;99.90;;;;;;4862177;29;20084;-67
2022/08/30 07:40:51;;;;;;;9.07;3.25;;;17.60;99.90;;;;;;4861952;29;20064;-67
2022/08/30 07:43:17;;;;;;;3.97;1.67;;;17.70;99.90;;;;;;4852565;29;20054;-68
2022/08/30 07:45:42;;;;;;;2.53;1.70;;;17.70;99.90;;;;;;4853353;29;20057;-68
2022/08/30 07:48:10;;;;;;;2.20;1.50;;;17.90;99.90;;;;;;4814842;29;20259;-68
2022/08/30 07:50:37;;;;;;;4.53;1.50;;;18.00;99.90;;;;;;4827356;29;20054;-68
2022/08/30 07:53:03;;;;;;;1.88;1.50;;;18.00;99.90;;;;;;4843623;29;20060;-68
2022/08/30 07:55:29;;;;;;;2.75;1.30;;;18.10;99.90;;;;;;4843892;29;20062;-68
2022/08/30 07:57:55;;;;;;;4.03;1.90;;;18.10;99.90;;;;;;4827528;29;20064;-67
2022/08/30 08:00:20;;;;;;;3.80;1.48;;;18.10;99.90;;;;;;4839442;29;20491;-67
2022/08/30 08:02:46;;;;;;;2.35;1.38;;;18.20;99.90;;;;;;4845654;29;20057;-68
2022/08/30 08:05:13;;;;;;;1.75;1.20;;;18.30;99.90;;;;;;4830598;29;20164;-67
2022/08/30 08:07:38;;;;;;;2.20;1.55;;;18.30;99.90;;;;;;4845203;29;20061;-68
2022/08/30 08:10:05;;;;;;;2.95;1.77;;;18.50;99.90;;;;;;4862171;29;20062;-68
2022/08/30 08:12:30;;;;;;;2.72;1.25;;;18.60;99.90;;;;;;4862376;29;20053;-68
2022/08/30 08:14:56;;;;;;;1.48;1.35;;;18.70;99.90;;;;;;4840989;29;20379;-67
2022/08/30 08:17:21;;;;;;;3.45;1.40;;;18.50;99.90;;;;;;4853076;29;20185;-68
2022/08/30 08:19:47;;;;;;;1.33;1.23;;;18.70;99.90;;;;;;4836229;29;20064;-67
2022/08/30 08:22:13;;;;;;;3.70;1.20;;;18.70;99.90;;;;;;4837066;29;20049;-67
2022/08/30 08:24:38;;;;;;;1.83;1.20;;;18.80;99.90;;;;;;4852617;29;20057;-67
2022/08/30 08:27:04;;;;;;;2.95;1.30;;;18.90;99.90;;;;;;4834712;29;20058;-67
2022/08/30 08:29:30;;;;;;;3.80;1.27;;;18.90;99.90;;;;;;4850432;29;20106;-67
2022/08/30 08:31:56;;;;;;;2.40;1.30;;;18.90;99.90;;;;;;4825966;29;20050;-67
2022/08/30 08:34:22;;;;;;;1.90;1.20;;;18.90;99.90;;;;;;4843377;29;20399;-67
2022/08/30 08:36:49;;;;;;;3.00;1.50;;;18.90;99.90;;;;;;4856922;29;20117;-67
2022/08/30 08:39:16;;;;;;;2.50;1.23;;;18.90;99.90;;;;;;4855303;29;20064;-67
2022/08/30 08:42:07;;;;;;;2.97;1.38;;;18.90;99.90;;;;;;4844900;29;20345;-68
2022/08/30 08:44:58;;;;;;;2.65;1.38;;;19.00;99.90;;;;;;4854382;29;20062;-68
2022/08/30 08:47:39;;;;;;;2.22;1.00;;;19.00;99.90;;;;;;4852522;29;20132;-68
2022/08/30 08:50:11;;;;;;;2.60;1.10;;;18.90;99.90;;;;;;4837086;29;20088;-68
2022/08/30 08:55:52;;;;;;;1.83;1.50;;;19.00;99.90;;;;;;4844934;29;20053;-68
2022/08/30 08:58:24;;;;;;;4.38;1.30;;;19.20;99.90;;;;;;4843570;29;20046;-68
2022/08/30 09:00:51;;;;;;;1.60;1.10;;;19.30;99.90;;;;;;4853105;29;20060;-67
2022/08/30 09:03:20;;;;;;;2.15;1.40;;;19.30;99.90;;;;;;4834908;29;20049;-68
2022/08/30 09:05:47;;;;;;;3.05;1.38;;;19.20;99.90;;;;;;4853243;29;20058;-68
2022/08/30 09:08:15;;;;;;;1.98;1.25;;;19.40;99.90;;;;;;4835181;29;20092;-67
2022/08/30 09:10:47;;;;;;;2.35;1.33;;;19.40;99.90;;;;;;4834258;29;20106;-68
2022/08/30 09:13:42;;;;;;;1.70;1.10;;;19.50;99.90;;;;;;4850655;29;20069;-67
2022/08/30 09:16:58;;;;;;;4.38;1.13;;;19.60;99.90;;;;;;4850608;29;20063;-68
2022/08/30 09:20:01;;;;;;;1.77;1.27;;;19.60;99.90;;;;;;4835160;29;20053;-68
2022/08/30 09:22:31;;;;;;;2.28;1.13;;;19.60;99.90;;;;;;4848778;29;20056;-68
2022/08/30 09:25:12;;;;;;;1.42;1.33;;;19.70;99.90;;;;;;4834892;29;20049;-67
2022/08/30 09:27:41;;;;;;;1.55;1.00;;;19.70;99.90;;;;;;4834880;29;20122;-67
2022/08/30 09:30:08;;;;;;;1.77;1.10;;;19.80;99.90;;;;;;4850738;29;20088;-67
2022/08/30 09:32:39;;;;;;;2.63;1.17;;;20.00;99.90;;;;;;4833627;29;20496;-68
2022/08/30 09:35:09;;;;;;;1.83;0.85;;;20.10;99.90;;;;;;4850451;29;20042;-67
2022/08/30 09:37:53;;;;;;;2.60;1.05;;;20.20;99.90;;;;;;4840582;29;20061;-68
2022/08/30 09:40:38;;;;;;;1.63;1.02;;;20.30;99.90;;;;;;4860946;29;20049;-67
2022/08/30 09:43:08;;;;;;;2.45;1.23;;;20.20;99.90;;;;;;4842361;29;20137;-67
2022/08/30 09:45:40;;;;;;;1.73;1.00;;;20.20;99.90;;;;;;4830691;29;20127;-67
2022/08/30 09:48:21;;;;;;;;;;;20.30;99.90;;;;;;4835929;29;20053;-67
2022/08/30 09:50:57;;;;;;;2.35;1.00;;;20.40;99.90;;;;;;4857521;29;19935;-68
2022/08/30 09:53:33;;;;;;;2.47;1.20;;;20.40;98.70;;;;;;4842830;29;20061;-67
2022/08/30 09:56:38;;;;;;;2.67;1.05;;;20.40;98.90;;;;;;4836761;29;20083;-67
2022/08/30 09:59:30;;;;;;;1.10;1.00;;;20.30;98.60;;;;;;4826687;29;20050;-67
2022/08/30 10:02:35;;;;;;;1.48;1.10;;;20.20;99.80;;;;;;4835406;29;20399;-67
2022/08/30 10:05:12;;;;;;;1.67;0.98;;;20.30;97.90;;;;;;4850790;29;20086;-68
2022/08/30 10:07:44;;;;;;;1.02;0.77;;;20.30;99.40;;;;;;4851087;29;20060;-68
2022/08/30 10:10:13;;;;;;;1.60;0.93;;;20.40;98.30;;;;;;4832291;29;20402;-67
2022/08/30 10:12:42;;;;;;;3.83;0.90;;;20.50;98.80;;;;;;4836870;29;20053;-66
2022/08/30 10:15:22;;;;;;;3.65;1.27;;;20.60;98.70;;;;;;4849846;29;20090;-67
2022/08/30 10:18:13;;;;;;;1.40;0.80;;;20.60;97.00;;;;;;4836176;29;20041;-66
2022/08/30 10:21:02;;;;;;;3.35;1.15;;;20.70;98.70;;;;;;4850592;29;20148;-67
2022/08/30 10:23:34;;;;;;;1.60;0.90;;;20.70;95.30;;;;;;4849965;29;20054;-66
2022/08/30 10:26:21;;;;;;;5.55;1.30;;;20.90;96.00;;;;;;4850516;29;20070;-68
2022/08/30 10:28:57;;;;;;;1.20;0.77;;;20.90;96.00;;;;;;4852127;29;20057;-67
2022/08/30 10:31:42;;;;;;;1.52;1.20;;;21.10;94.90;;;;;;4833181;29;20414;-67
2022/08/30 10:34:24;;;;;;;1.40;0.80;;;21.20;94.10;;;;;;4852414;29;20157;-67
2022/08/30 10:37:22;;;;;;;2.60;1.52;;;21.30;92.10;;;;;;4855165;29;20053;-67
2022/08/30 10:39:57;;;;;;;1.73;0.90;;;21.30;93.20;;;;;;4854332;29;20132;-67
2022/08/30 10:42:30;;;;;;;2.72;1.20;;;21.30;92.90;;;;;;4849943;29;20137;-67
2022/08/30 10:45:06;;;;;;;1.45;0.73;;;21.30;91.80;;;;;;4852290;29;20065;-67
2022/08/30 10:47:52;;;;;;;1.20;0.77;;;21.40;92.00;;;;;;4834231;29;20091;-67
2022/08/30 10:50:41;;;;;;;2.15;0.80;;;21.40;90.70;;;;;;4831383;29;20062;-67
2022/08/30 10:53:14;;;;;;;1.65;1.20;;;21.40;90.30;;;;;;4849226;29;20097;-67
2022/08/30 10:55:49;;;;;;;2.35;1.20;;;21.60;90.70;;;;;;4856680;29;20108;-67
2022/08/30 10:58:16;;;;;;;1.67;0.90;;;21.50;90.40;;;;;;4836073;29;20128;-67
2022/08/30 11:00:52;;;;;;;1.20;0.80;;;21.50;90.20;;;;;;4855110;29;20117;-68
2022/08/30 11:03:41;;;;;;;2.33;0.77;;;21.50;90.40;;;;;;4863359;29;20136;-67
2022/08/30 11:06:25;;;;;;;1.88;1.00;;;21.50;82.50;;;;;;4861378;29;20053;-67
2022/08/30 11:09:25;;;;;;;1.20;0.80;;;21.60;81.70;;;;;;4836831;29;20050;-67
2022/08/30 11:12:13;;;;;;;1.75;0.80;;;21.60;84.10;;;;;;4853306;29;20071;-66
2022/08/30 11:14:42;;;;;;;1.95;1.10;;;21.60;81.30;;;;;;4860152;29;20159;-67
2022/08/30 11:17:27;;;;;;;1.80;1.00;;;21.70;86.10;;;;;;4863230;29;20160;-67
2022/08/30 11:19:57;;;;;;;1.92;0.75;;;21.90;80.60;;;;;;4862075;29;20057;-67
2022/08/30 11:22:31;;;;;;;3.28;1.10;;;21.80;79.80;;;;;;4857640;29;20498;-67
2022/08/30 11:25:05;;;;;;;0.93;0.80;;;21.80;77.40;;;;;;4851572;29;20054;-69
2022/08/30 11:27:48;;;;;;;2.03;0.82;;;21.80;75.60;;;;;;4852198;29;20057;-68
2022/08/30 11:30:40;;;;;;;2.17;1.10;;;21.80;70.90;;;;;;4846445;29;20053;-67
2022/08/30 11:33:14;;;;;;;2.50;0.90;;;21.60;71.20;;;;;;4843912;29;20396;-66
2022/08/30 11:35:48;;;;;;;1.90;1.10;;;21.60;74.50;;;;;;4862912;29;20064;-66
2022/08/30 11:38:25;;;;;;;1.33;1.05;;;21.80;75.20;;;;;;4858518;29;20045;-67
2022/08/30 11:41:05;;;;;;;1.60;0.85;;;21.80;74.30;;;;;;4844378;29;20710;-67
2022/08/30 11:43:38;;;;;;;1.33;0.80;;;21.80;74.90;;;;;;4827493;29;20054;-67
2022/08/30 11:46:30;;;;;;;1.40;0.90;;;21.90;76.30;;;;;;4844090;29;20062;-66
2022/08/30 11:49:13;;;;;;;1.92;1.02;;;22.10;74.60;;;;;;4840803;29;20504;-67
2022/08/30 11:52:09;;;;;;;1.48;1.10;;;22.10;75.10;;;;;;4836589;29;20062;-67
2022/08/30 11:54:50;;;;;;;2.05;0.90;;;22.30;72.40;;;;;;4833146;29;20065;-68
2022/08/30 11:57:36;;;;;;;3.10;0.90;;;22.20;71.50;;;;;;4861134;29;20499;-67
2022/08/30 12:00:04;;;;;;;1.33;0.90;;;22.10;70.10;;;;;;4861855;29;20193;-67
2022/08/30 12:02:44;;;;;;;3.67;1.08;;;22.10;70.80;;;;;;4854614;29;20053;-67
2022/08/30 12:05:38;;;;;;;2.95;0.90;;;22.20;71.50;;;;;;4851845;29;20060;-68
2022/08/30 12:08:13;;;;;;;1.13;0.98;;;22.40;72.70;;;;;;4851615;29;20061;-67
2022/08/30 12:10:56;;;;;;;1.30;0.88;;;22.50;72.40;;;;;;4835034;29;20137;-67
2022/08/30 12:13:36;;;;;;;2.70;0.90;;;22.40;70.60;;;;;;4854173;29;20459;-67
2022/08/30 12:16:11;;;;;;;2.63;1.02;;;22.50;70.20;;;;;;4852083;29;20523;-69
2022/08/30 12:18:58;;;;;;;3.38;1.10;;;22.50;71.00;;;;;;4842284;29;20054;-67
2022/08/30 12:21:31;;;;;;;2.58;0.80;;;22.40;70.90;;;;;;4843233;29;20096;-69
2022/08/30 12:24:08;;;;;;;1.75;0.88;;;22.40;71.60;;;;;;4842139;29;20061;-67
2022/08/30 12:26:35;;;;;;;1.50;0.90;;;22.30;71.00;;;;;;4852557;29;20081;-68
2022/08/30 12:29:22;;;;;;;0.98;0.88;;;22.40;72.10;;;;;;4847461;29;20491;-67
2022/08/30 12:32:01;;;;;;;1.30;0.85;;;22.50;71.00;;;;;;4843725;29;20411;-67
2022/08/30 12:34:34;;;;;;;1.67;1.00;;;22.60;71.00;;;;;;4843383;29;20058;-69
2022/08/30 12:37:03;;;;;;;4.75;1.00;;;22.60;71.10;;;;;;4826202;29;20061;-69
2022/08/30 12:39:35;;;;;;;2.78;0.85;;;22.80;71.70;;;;;;4826902;29;20081;-67
2022/08/30 12:42:12;;;;;;;0.98;0.80;;;22.80;69.70;;;;;;4850428;29;20046;-69
2022/08/30 12:44:40;;;;;;;1.40;0.80;;;23.00;68.40;;;;;;4851322;29;20050;-68
2022/08/30 12:47:06;;;;;;;1.80;1.27;;;22.90;68.50;;;;;;4844718;29;20368;-68
2022/08/30 12:49:36;;;;;;;3.08;1.00;;;22.90;69.70;;;;;;4861655;29;20581;-68
2022/08/30 12:52:30;;;;;;;2.15;1.02;;;23.00;69.70;;;;;;4853203;29;20057;-68
2022/08/30 12:55:18;;;;;;;1.35;0.80;;;23.10;69.50;;;;;;4851006;29;20054;-68
2022/08/30 12:57:59;;;;;;;1.92;1.48;;;23.00;68.50;;;;;;4850731;29;20125;-67
2022/08/30 13:00:31;;;;;;;1.50;0.63;;;22.90;69.50;;;;;;4835805;29;20072;-68
2022/08/30 13:02:58;;;;;;;;;;;22.90;70.90;;;;;;4851209;29;20050;-69
2022/08/30 13:05:37;;;;;;;1.45;0.70;;;22.80;68.70;;;;;;4851481;29;19971;-68
2022/08/30 13:08:24;;;;;;;1.23;0.80;;;22.70;70.90;;;;;;4853702;29;20057;-68
2022/08/30 13:11:05;;;;;;;1.65;1.00;;;22.70;70.20;;;;;;4835618;29;20179;-69
2022/08/30 13:13:34;;;;;;;1.93;0.70;;;22.80;70.90;;;;;;4857005;29;20061;-68